createdAt,value
2018-10-21T00:04:27.963Z,102529.00
2018-10-21T00:09:23.045Z,102530.00
2018-10-21T00:14:17.485Z,102527.00
2018-10-21T00:19:10.896Z,102532.00
2018-10-21T00:24:05.046Z,102522.00
2018-10-21T00:28:58.485Z,102513.00
2018-10-21T00:33:53.175Z,102529.00
2018-10-21T00:38:46.535Z,102528.00
2018-10-21T00:43:40.076Z,102531.00
2018-10-21T00:48:34.733Z,102527.00
2018-10-21T00:53:30.300Z,102532.00
2018-10-21T00:58:26.499Z,102534.00
2018-10-21T01:03:20.012Z,102536.00
2018-10-21T01:08:13.366Z,102539.00
2018-10-21T01:13:06.737Z,102542.00
2018-10-21T01:18:00.055Z,102539.00
2018-10-21T01:22:54.080Z,102534.00
2018-10-21T01:27:50.216Z,102534.00
2018-10-21T01:32:45.196Z,102532.00
2018-10-21T01:37:38.644Z,102539.00
2018-10-21T01:42:31.980Z,102531.00
2018-10-21T01:47:25.898Z,102530.00
2018-10-21T01:52:19.348Z,102531.00
2018-10-21T01:57:12.808Z,102540.00
2018-10-21T02:02:07.923Z,102537.00
2018-10-21T02:07:01.260Z,102530.00
2018-10-21T02:11:54.661Z,102527.00
2018-10-21T02:16:48.024Z,102530.00
2018-10-21T02:21:42.060Z,102530.00
2018-10-21T02:26:36.164Z,102536.00
2018-10-21T02:31:30.393Z,102532.00
2018-10-21T02:36:23.909Z,102533.00
2018-10-21T02:41:37.647Z,102527.00
2018-10-21T02:46:32.132Z,102529.00
2018-10-21T02:51:25.476Z,102525.00
2018-10-21T02:56:19.454Z,102525.00
2018-10-21T03:01:12.854Z,102522.00
2018-10-21T03:06:07.388Z,102518.00
2018-10-21T03:11:01.370Z,102518.00
2018-10-21T03:15:55.231Z,102511.00
2018-10-21T03:20:48.677Z,102502.00
2018-10-21T03:25:43.172Z,102517.00
2018-10-21T03:30:37.423Z,102508.00
2018-10-21T03:35:30.874Z,102503.00
2018-10-21T03:40:24.710Z,102492.00
2018-10-21T03:45:18.738Z,102497.00
2018-10-21T03:50:12.470Z,102494.00
2018-10-21T03:55:06.118Z,102497.00
2018-10-21T03:59:59.483Z,102498.00
2018-10-21T04:04:52.820Z,102495.00
2018-10-21T04:09:46.254Z,102490.00
2018-10-21T04:14:39.564Z,102473.00
2018-10-21T04:19:34.866Z,102484.00
2018-10-21T04:24:28.169Z,102486.00
2018-10-21T04:29:21.516Z,102484.00
2018-10-21T04:34:14.920Z,102484.00
2018-10-21T04:39:40.465Z,102482.00
2018-10-21T04:44:34.835Z,102467.00
2018-10-21T04:49:28.317Z,102459.00
2018-10-21T04:54:22.386Z,102454.00
2018-10-21T04:59:15.792Z,102452.00
2018-10-21T05:04:09.253Z,102451.00
2018-10-21T05:09:02.741Z,102449.00
2018-10-21T05:13:56.746Z,102449.00
2018-10-21T05:18:51.635Z,102453.00
2018-10-21T05:23:45.061Z,102450.00
2018-10-21T05:28:38.470Z,102449.00
2018-10-21T05:33:32.786Z,102456.00
2018-10-21T05:38:26.439Z,102456.00
2018-10-21T05:43:19.784Z,102448.00
2018-10-21T05:48:13.098Z,102463.00
2018-10-21T05:53:06.485Z,102463.00
2018-10-21T05:57:59.825Z,102463.00
2018-10-21T06:02:54.028Z,102459.00
2018-10-21T06:07:47.330Z,102456.00
2018-10-21T06:12:41.248Z,102458.00
2018-10-21T06:17:34.680Z,102463.00
2018-10-21T06:22:36.064Z,102467.00
2018-10-21T06:27:29.498Z,102472.00
2018-10-21T06:32:22.913Z,102469.00
2018-10-21T06:37:16.340Z,102473.00
2018-10-21T06:42:09.749Z,102472.00
2018-10-21T06:47:03.181Z,102478.00
2018-10-21T06:51:58.735Z,102483.00
2018-10-21T06:56:52.723Z,102485.00
2018-10-21T07:01:45.977Z,102475.00
2018-10-21T07:06:39.385Z,102470.00
2018-10-21T07:11:37.009Z,102480.00
2018-10-21T07:16:30.374Z,102477.00
2018-10-21T07:21:23.828Z,102485.00
2018-10-21T07:26:17.278Z,102497.00
2018-10-21T07:31:10.679Z,102498.00
2018-10-21T07:36:05.025Z,102496.00
2018-10-21T07:40:59.371Z,102497.00
2018-10-21T07:45:52.900Z,102501.00
2018-10-21T07:50:46.255Z,102507.00
2018-10-21T07:55:40.655Z,102513.00
2018-10-21T08:00:36.041Z,102514.00
2018-10-21T08:05:46.538Z,102512.00
2018-10-21T08:10:40.251Z,102505.00
2018-10-21T08:15:34.657Z,102500.00
2018-10-21T08:20:28.022Z,102501.00
2018-10-21T08:25:21.478Z,102490.00
2018-10-21T08:30:15.888Z,102496.00
2018-10-21T08:35:09.329Z,102490.00
2018-10-21T08:40:03.381Z,102482.00
2018-10-21T08:44:58.201Z,102482.00
2018-10-21T08:49:52.747Z,102477.00
2018-10-21T08:54:46.097Z,102475.00
2018-10-21T08:59:40.156Z,102474.00
2018-10-21T09:04:35.607Z,102467.00
2018-10-21T09:09:28.979Z,102466.00
2018-10-21T09:14:23.424Z,102464.00
2018-10-21T09:19:16.806Z,102458.00
2018-10-21T09:24:10.107Z,102464.00
2018-10-21T09:29:03.521Z,102466.00
2018-10-21T09:33:58.551Z,102463.00
2018-10-21T09:38:52.571Z,102459.00
2018-10-21T09:43:45.932Z,102447.00
2018-10-21T09:48:39.281Z,102455.00
2018-10-21T09:53:32.829Z,102455.00
2018-10-21T09:58:26.700Z,102439.00
2018-10-21T10:03:20.119Z,102437.00
2018-10-21T10:08:13.641Z,102431.00
2018-10-21T10:13:07.007Z,102424.00
2018-10-21T10:18:00.364Z,102428.00
2018-10-21T10:22:53.698Z,102420.00
2018-10-21T10:27:47.087Z,102416.00
2018-10-21T10:32:42.330Z,102414.00
2018-10-21T10:37:35.652Z,102409.00
2018-10-21T10:42:29.969Z,102402.00
2018-10-21T10:47:23.411Z,102401.00
2018-10-21T10:52:17.633Z,102394.00
2018-10-21T10:57:10.934Z,102395.00
2018-10-21T11:02:04.645Z,102389.00
2018-10-21T11:06:58.385Z,102384.00
2018-10-21T11:11:51.681Z,102377.00
2018-10-21T11:16:45.093Z,102361.00
2018-10-21T11:21:38.421Z,102358.00
2018-10-21T11:26:31.871Z,102350.00
2018-10-21T11:31:25.286Z,102346.00
2018-10-21T11:36:18.667Z,102341.00
2018-10-21T11:41:11.984Z,102341.00
2018-10-21T11:46:05.589Z,102328.00
2018-10-21T11:50:59.909Z,102323.00
2018-10-21T11:55:53.962Z,102313.00
2018-10-21T12:00:48.384Z,102298.00
2018-10-21T12:05:42.411Z,102291.00
2018-10-21T12:10:35.864Z,102286.00
2018-10-21T12:15:29.922Z,102280.00
2018-10-21T12:20:24.425Z,102280.00
2018-10-21T12:25:17.921Z,102279.00
2018-10-21T12:30:12.475Z,102266.00
2018-10-21T12:35:09.102Z,102263.00
2018-10-21T12:40:02.614Z,102257.00
2018-10-21T12:44:55.946Z,102256.00
2018-10-21T12:49:49.357Z,102253.00
2018-10-21T12:54:43.399Z,102247.00
2018-10-21T12:59:36.753Z,102241.00
2018-10-21T13:04:30.072Z,102244.00
2018-10-21T13:09:24.564Z,102236.00
2018-10-21T13:14:20.005Z,102243.00
2018-10-21T13:19:13.441Z,102238.00
2018-10-21T13:24:06.886Z,102232.00
2018-10-21T13:29:00.272Z,102233.00
2018-10-21T13:33:53.618Z,102223.00
2018-10-21T13:38:47.034Z,102217.00
2018-10-21T13:43:41.117Z,102208.00
2018-10-21T13:48:35.336Z,102202.00
2018-10-21T13:53:30.465Z,102193.00
2018-10-21T13:58:24.444Z,102193.00
2018-10-21T14:03:18.787Z,102188.00
2018-10-21T14:08:12.171Z,102188.00
2018-10-21T14:13:06.284Z,102176.00
2018-10-21T14:18:00.182Z,102178.00
2018-10-21T14:22:53.592Z,102170.00
2018-10-21T14:27:47.003Z,102169.00
2018-10-21T14:32:41.171Z,102162.00
2018-10-21T14:37:34.579Z,102157.00
2018-10-21T14:42:27.946Z,102151.00
2018-10-21T14:47:21.371Z,102141.00
2018-10-21T14:52:14.759Z,102138.00
2018-10-21T14:57:12.063Z,102130.00
2018-10-21T15:02:06.541Z,102125.00
2018-10-21T15:07:02.094Z,102121.00
2018-10-21T15:11:56.126Z,102119.00
2018-10-21T15:16:49.505Z,102114.00
2018-10-21T15:21:42.883Z,102108.00
2018-10-21T15:26:36.427Z,102109.00
2018-10-21T15:31:29.796Z,102100.00
2018-10-21T15:36:24.501Z,102105.00
2018-10-21T15:41:18.837Z,102098.00
2018-10-21T15:46:13.269Z,102103.00
2018-10-21T15:51:06.649Z,102104.00
2018-10-21T15:56:01.916Z,102100.00
2018-10-21T16:00:56.150Z,102097.00
2018-10-21T16:05:50.250Z,102094.00
2018-10-21T16:10:43.577Z,102095.00
2018-10-21T16:15:36.954Z,102098.00
2018-10-21T16:20:30.355Z,102096.00
2018-10-21T16:25:23.795Z,102103.00
2018-10-21T16:30:19.946Z,102104.00
2018-10-21T16:35:15.249Z,102109.00
2018-10-21T16:40:15.150Z,102108.00
2018-10-21T16:45:11.556Z,102105.00
2018-10-21T16:50:08.827Z,102108.00
2018-10-21T16:55:03.126Z,102104.00
2018-10-21T16:59:56.645Z,102105.00
2018-10-21T17:04:50.397Z,102107.00
2018-10-21T17:09:46.495Z,102107.00
2018-10-21T17:14:41.193Z,102115.00
2018-10-21T17:19:36.805Z,102113.00
2018-10-21T17:24:31.028Z,102113.00
2018-10-21T17:29:24.429Z,102112.00
2018-10-21T17:34:24.845Z,102113.00
2018-10-21T17:39:27.521Z,102119.00
2018-10-21T17:44:25.184Z,102116.00
2018-10-21T17:49:28.145Z,102121.00
2018-10-21T17:54:24.866Z,102120.00
2018-10-21T17:59:20.801Z,102121.00
2018-10-21T18:04:16.468Z,102124.00
2018-10-21T18:09:12.272Z,102129.00
2018-10-21T18:14:07.201Z,102133.00
2018-10-21T18:19:03.202Z,102137.00
2018-10-21T18:23:56.789Z,102136.00
2018-10-21T18:28:51.603Z,102139.00
2018-10-21T18:33:45.720Z,102143.00
2018-10-21T18:38:41.030Z,102141.00
2018-10-21T18:43:37.089Z,102141.00
2018-10-21T18:48:31.998Z,102140.00
2018-10-21T18:53:26.421Z,102142.00
2018-10-21T18:58:21.402Z,102139.00
2018-10-21T19:03:15.499Z,102139.00
2018-10-21T19:08:09.063Z,102141.00
2018-10-21T19:13:03.182Z,102134.00
2018-10-21T19:17:56.609Z,102137.00
2018-10-21T19:22:50.114Z,102137.00
2018-10-21T19:27:45.156Z,102131.00
2018-10-21T19:32:39.805Z,102133.00
2018-10-21T19:37:33.151Z,102132.00
2018-10-21T19:42:26.514Z,102135.00
2018-10-21T19:47:22.329Z,102127.00
2018-10-21T19:52:17.480Z,102126.00
2018-10-21T19:57:13.976Z,102128.00
2018-10-21T20:02:09.851Z,102125.00
2018-10-21T20:07:05.024Z,102123.00
2018-10-21T20:12:00.298Z,102129.00
2018-10-21T20:16:54.754Z,102139.00
2018-10-21T20:21:48.606Z,102137.00
2018-10-21T20:26:43.035Z,102142.00
2018-10-21T20:31:36.888Z,102133.00
2018-10-21T20:36:30.916Z,102136.00
2018-10-21T20:41:25.172Z,102145.00
2018-10-21T20:46:18.678Z,102140.00
2018-10-21T20:51:12.382Z,102136.00
2018-10-21T20:56:06.408Z,102142.00
2018-10-21T21:00:59.751Z,102150.00
2018-10-21T21:05:53.104Z,102159.00
2018-10-21T21:10:47.067Z,102159.00
2018-10-21T21:15:42.779Z,102166.00
2018-10-21T21:20:36.247Z,102167.00
2018-10-21T21:25:30.113Z,102174.00
2018-10-21T21:30:23.466Z,102168.00
2018-10-21T21:35:18.077Z,102166.00
2018-10-21T21:40:12.255Z,102176.00
2018-10-21T21:45:06.325Z,102179.00
2018-10-21T21:49:59.759Z,102183.00
2018-10-21T21:54:53.572Z,102177.00
2018-10-21T21:59:46.910Z,102176.00
2018-10-21T22:04:41.361Z,102180.00
2018-10-21T22:09:35.602Z,102189.00
2018-10-21T22:14:28.941Z,102190.00
2018-10-21T22:19:22.296Z,102198.00
2018-10-21T22:24:15.700Z,102195.00
2018-10-21T22:29:09.093Z,102187.00
2018-10-21T22:34:02.475Z,102179.00
2018-10-21T22:38:55.827Z,102182.00
2018-10-21T22:43:49.172Z,102179.00
2018-10-21T22:48:43.604Z,102183.00
2018-10-21T22:53:37.022Z,102180.00
2018-10-21T22:58:30.505Z,102179.00
2018-10-21T23:03:26.161Z,102181.00
2018-10-21T23:08:20.944Z,102176.00
2018-10-21T23:13:15.023Z,102184.00
2018-10-21T23:18:10.128Z,102185.00
2018-10-21T23:23:05.565Z,102189.00
2018-10-21T23:27:58.980Z,102195.00
2018-10-21T23:32:52.427Z,102197.00
2018-10-21T23:37:45.804Z,102194.00
2018-10-21T23:42:40.569Z,102195.00
2018-10-21T23:47:33.916Z,102194.00
2018-10-21T23:52:30.364Z,102192.00
2018-10-21T23:57:23.982Z,102191.00
